ZKWTK NZAR-NZKD
Flight info
| Callsign | ZKWTK |
|---|---|
| Flight time | 0h 31m |
| Altitude | 2500 |
| Route | WAIHEKE |
| Aircraft | C172/L-V/N |
Departure
| Time | 2026-04-15 23:14 |
|---|---|
| Airport | Ardmore Airport (NZAR) |
Arrival
| Time | 2026-04-15 23:45 |
|---|---|
| Airport | Motu Kaikoura Island Aerodrome (NZKD) |
| Time | Latitude | Longitude | Altitude | Speed | Heading |
|---|---|---|---|---|---|
| 2026-04-15 22:59 | -37.03341 | 174.97461 | 110 ft | 0 kts | 35° |
| 2026-04-15 23:01 | -37.03333 | 174.97466 | 110 ft | 2 kts | 18° |
| 2026-04-15 23:02 | -37.03319 | 174.97461 | 110 ft | 2 kts | 322° |
| 2026-04-15 23:02 | -37.03304 | 174.97443 | 110 ft | 3 kts | 309° |
| 2026-04-15 23:02 | -37.03284 | 174.97424 | 110 ft | 4 kts | 336° |
| 2026-04-15 23:02 | -37.03263 | 174.97409 | 110 ft | 3 kts | 319° |
| 2026-04-15 23:03 | -37.03244 | 174.97391 | 110 ft | 3 kts | 321° |
| 2026-04-15 23:03 | -37.03225 | 174.97377 | 110 ft | 2 kts | 355° |
| 2026-04-15 23:03 | -37.03208 | 174.97394 | 110 ft | 5 kts | 48° |
| 2026-04-15 23:03 | -37.03177 | 174.97433 | 110 ft | 6 kts | 43° |
| 2026-04-15 23:04 | -37.03161 | 174.97453 | 110 ft | 1 kts | 45° |
| 2026-04-15 23:04 | -37.03148 | 174.97472 | 110 ft | 4 kts | 43° |
| 2026-04-15 23:04 | -37.03126 | 174.97496 | 110 ft | 4 kts | 44° |
| 2026-04-15 23:04 | -37.03100 | 174.97531 | 110 ft | 5 kts | 45° |
| 2026-04-15 23:05 | -37.03082 | 174.97553 | 110 ft | 3 kts | 44° |
| 2026-04-15 23:05 | -37.03056 | 174.97586 | 110 ft | 7 kts | 43° |
| 2026-04-15 23:05 | -37.03014 | 174.97639 | 110 ft | 9 kts | 46° |
| 2026-04-15 23:05 | -37.02969 | 174.97699 | 110 ft | 9 kts | 45° |
| 2026-04-15 23:06 | -37.02923 | 174.97755 | 110 ft | 8 kts | 45° |
| 2026-04-15 23:06 | -37.02882 | 174.97807 | 110 ft | 7 kts | 46° |
| 2026-04-15 23:06 | -37.02846 | 174.97852 | 110 ft | 7 kts | 45° |
| 2026-04-15 23:06 | -37.02820 | 174.97900 | 110 ft | 5 kts | 89° |
| 2026-04-15 23:07 | -37.02805 | 174.97922 | 110 ft | 0 kts | 76° |
| 2026-04-15 23:07 | -37.02807 | 174.97922 | 110 ft | 0 kts | 223° |
| 2026-04-15 23:10 | -37.02808 | 174.97922 | 110 ft | 0 kts | 219° |
| 2026-04-15 23:10 | -37.02818 | 174.97925 | 110 ft | 1 kts | 127° |
| 2026-04-15 23:10 | -37.02821 | 174.97958 | 110 ft | 6 kts | 88° |
| 2026-04-15 23:11 | -37.02819 | 174.98021 | 110 ft | 10 kts | 89° |
| 2026-04-15 23:11 | -37.02819 | 174.98112 | 110 ft | 8 kts | 80° |
| 2026-04-15 23:11 | -37.02782 | 174.98125 | 110 ft | 5 kts | 335° |
| 2026-04-15 23:11 | -37.02744 | 174.98102 | 110 ft | 8 kts | 332° |
| 2026-04-15 23:12 | -37.02696 | 174.98070 | 110 ft | 4 kts | 331° |
| 2026-04-15 23:12 | -37.02679 | 174.98059 | 110 ft | 1 kts | 335° |
| 2026-04-15 23:12 | -37.02661 | 174.98045 | 110 ft | 6 kts | 322° |
| 2026-04-15 23:12 | -37.02646 | 174.98006 | 110 ft | 1 kts | 227° |
| 2026-04-15 23:13 | -37.02647 | 174.98004 | 110 ft | 0 kts | 226° |
| 2026-04-15 23:13 | -37.02706 | 174.97928 | 110 ft | 37 kts | 226° |
| 2026-04-15 23:13 | -37.02971 | 174.97600 | 188 ft | 61 kts | 227° |
| 2026-04-15 23:13 | -37.03250 | 174.97188 | 362 ft | 63 kts | 232° |
| 2026-04-15 23:14 | -37.03538 | 174.96790 | 564 ft | 62 kts | 227° |
| 2026-04-15 23:14 | -37.03843 | 174.96402 | 749 ft | 63 kts | 222° |
| 2026-04-15 23:14 | -37.04275 | 174.96436 | 945 ft | 78 kts | 148° |
| 2026-04-15 23:14 | -37.04661 | 174.96951 | 1111 ft | 81 kts | 149° |
| 2026-04-15 23:15 | -37.04809 | 174.97714 | 1120 ft | 117 kts | 65° |
| 2026-04-15 23:15 | -37.04335 | 174.98569 | 1167 ft | 122 kts | 53° |
| 2026-04-15 23:15 | -37.03831 | 174.99419 | 1298 ft | 119 kts | 51° |
| 2026-04-15 23:15 | -37.03299 | 175.00240 | 1367 ft | 122 kts | 45° |
| 2026-04-15 23:16 | -37.02701 | 175.00998 | 1430 ft | 126 kts | 41° |
| 2026-04-15 23:16 | -37.02060 | 175.01791 | 1452 ft | 131 kts | 44° |
| 2026-04-15 23:16 | -37.01404 | 175.02608 | 1473 ft | 133 kts | 40° |
| 2026-04-15 23:16 | -37.00681 | 175.03352 | 1483 ft | 133 kts | 37° |
| 2026-04-15 23:17 | -36.99965 | 175.04051 | 1512 ft | 131 kts | 33° |
| 2026-04-15 23:17 | -36.99224 | 175.04738 | 1510 ft | 132 kts | 32° |
| 2026-04-15 23:17 | -36.98470 | 175.05431 | 1514 ft | 133 kts | 33° |
| 2026-04-15 23:17 | -36.97733 | 175.06093 | 1543 ft | 130 kts | 30° |
| 2026-04-15 23:18 | -36.96979 | 175.06737 | 1558 ft | 130 kts | 30° |
| 2026-04-15 23:18 | -36.96236 | 175.07382 | 1606 ft | 129 kts | 30° |
| 2026-04-15 23:18 | -36.95511 | 175.08017 | 1741 ft | 125 kts | 29° |
| 2026-04-15 23:18 | -36.94794 | 175.08620 | 1860 ft | 124 kts | 27° |
| 2026-04-15 23:19 | -36.94057 | 175.09180 | 1960 ft | 125 kts | 25° |
| 2026-04-15 23:19 | -36.93271 | 175.09776 | 1965 ft | 132 kts | 26° |
| 2026-04-15 23:19 | -36.92492 | 175.10384 | 1979 ft | 133 kts | 27° |
| 2026-04-15 23:19 | -36.91708 | 175.11021 | 1979 ft | 134 kts | 29° |
| 2026-04-15 23:20 | -36.90940 | 175.11665 | 1980 ft | 134 kts | 30° |
| 2026-04-15 23:20 | -36.90167 | 175.12335 | 1984 ft | 134 kts | 31° |
| 2026-04-15 23:20 | -36.89395 | 175.13029 | 1979 ft | 136 kts | 32° |
| 2026-04-15 23:20 | -36.88635 | 175.13687 | 2011 ft | 132 kts | 27° |
| 2026-04-15 23:21 | -36.87824 | 175.14267 | 1995 ft | 134 kts | 26° |
| 2026-04-15 23:21 | -36.87030 | 175.14861 | 2055 ft | 130 kts | 26° |
| 2026-04-15 23:21 | -36.86251 | 175.15427 | 2080 ft | 129 kts | 22° |
| 2026-04-15 23:21 | -36.85464 | 175.15967 | 2148 ft | 126 kts | 22° |
| 2026-04-15 23:22 | -36.84691 | 175.16473 | 2195 ft | 126 kts | 19° |
| 2026-04-15 23:22 | -36.83906 | 175.16950 | 2284 ft | 126 kts | 18° |
| 2026-04-15 23:22 | -36.83123 | 175.17406 | 2435 ft | 120 kts | 16° |
| 2026-04-15 23:22 | -36.82373 | 175.17841 | 2570 ft | 118 kts | 15° |
| 2026-04-15 23:23 | -36.81624 | 175.18182 | 2702 ft | 114 kts | 7° |
| 2026-04-15 23:23 | -36.80849 | 175.18484 | 2803 ft | 115 kts | 6° |
| 2026-04-15 23:23 | -36.80052 | 175.18765 | 2840 ft | 122 kts | 4° |
| 2026-04-15 23:23 | -36.79226 | 175.18988 | 2952 ft | 119 kts | 359° |
| 2026-04-15 23:24 | -36.78406 | 175.19153 | 3035 ft | 120 kts | 357° |
| 2026-04-15 23:24 | -36.77573 | 175.19270 | 3104 ft | 120 kts | 353° |
| 2026-04-15 23:24 | -36.76727 | 175.19461 | 3157 ft | 125 kts | 6° |
| 2026-04-15 23:24 | -36.75882 | 175.19810 | 3199 ft | 129 kts | 11° |
| 2026-04-15 23:25 | -36.75059 | 175.20227 | 3276 ft | 127 kts | 15° |
| 2026-04-15 23:25 | -36.74247 | 175.20657 | 3337 ft | 126 kts | 13° |
| 2026-04-15 23:25 | -36.73416 | 175.21072 | 3371 ft | 128 kts | 12° |
| 2026-04-15 23:25 | -36.72580 | 175.21475 | 3393 ft | 130 kts | 11° |
| 2026-04-15 23:26 | -36.71734 | 175.21878 | 3424 ft | 130 kts | 13° |
| 2026-04-15 23:26 | -36.70889 | 175.22317 | 3450 ft | 130 kts | 14° |
| 2026-04-15 23:26 | -36.70048 | 175.22749 | 3459 ft | 131 kts | 13° |
| 2026-04-15 23:26 | -36.69208 | 175.23183 | 3491 ft | 129 kts | 15° |
| 2026-04-15 23:27 | -36.68398 | 175.23671 | 3529 ft | 129 kts | 20° |
| 2026-04-15 23:27 | -36.67609 | 175.24245 | 3550 ft | 131 kts | 21° |
| 2026-04-15 23:27 | -36.66795 | 175.24705 | 3580 ft | 128 kts | 12° |
| 2026-04-15 23:27 | -36.65949 | 175.25122 | 3550 ft | 130 kts | 12° |
| 2026-04-15 23:28 | -36.65111 | 175.25529 | 3517 ft | 130 kts | 12° |
| 2026-04-15 23:28 | -36.64262 | 175.25951 | 3498 ft | 131 kts | 13° |
| 2026-04-15 23:28 | -36.63416 | 175.26372 | 3506 ft | 130 kts | 13° |
| 2026-04-15 23:28 | -36.62578 | 175.26804 | 3486 ft | 132 kts | 14° |
| 2026-04-15 23:29 | -36.61734 | 175.27241 | 3498 ft | 130 kts | 14° |
| 2026-04-15 23:29 | -36.60889 | 175.27681 | 3472 ft | 132 kts | 15° |
| 2026-04-15 23:29 | -36.60051 | 175.28163 | 3474 ft | 132 kts | 18° |
| 2026-04-15 23:29 | -36.59232 | 175.28680 | 3469 ft | 131 kts | 17° |
| 2026-04-15 23:30 | -36.58389 | 175.29114 | 3474 ft | 129 kts | 11° |
| 2026-04-15 23:30 | -36.57532 | 175.29497 | 3459 ft | 130 kts | 10° |
| 2026-04-15 23:30 | -36.56686 | 175.29898 | 3461 ft | 130 kts | 14° |
| 2026-04-15 23:30 | -36.55858 | 175.30357 | 3455 ft | 131 kts | 17° |
| 2026-04-15 23:31 | -36.55031 | 175.30826 | 3448 ft | 130 kts | 15° |
| 2026-04-15 23:31 | -36.54191 | 175.31253 | 3448 ft | 129 kts | 12° |
| 2026-04-15 23:31 | -36.53353 | 175.31624 | 3450 ft | 128 kts | 10° |
| 2026-04-15 23:31 | -36.52515 | 175.32010 | 3453 ft | 128 kts | 12° |
| 2026-04-15 23:32 | -36.51682 | 175.32439 | 3436 ft | 130 kts | 16° |
| 2026-04-15 23:32 | -36.50857 | 175.32930 | 3407 ft | 133 kts | 20° |
| 2026-04-15 23:32 | -36.50034 | 175.33487 | 3334 ft | 137 kts | 21° |
| 2026-04-15 23:32 | -36.49157 | 175.33990 | 3291 ft | 135 kts | 17° |
| 2026-04-15 23:33 | -36.48323 | 175.34500 | 3308 ft | 132 kts | 20° |
| 2026-04-15 23:33 | -36.47488 | 175.35033 | 3238 ft | 136 kts | 20° |
| 2026-04-15 23:33 | -36.46662 | 175.35535 | 3238 ft | 132 kts | 19° |
| 2026-04-15 23:33 | -36.45828 | 175.36063 | 3176 ft | 135 kts | 21° |
| 2026-04-15 23:34 | -36.44999 | 175.36614 | 3143 ft | 135 kts | 24° |
| 2026-04-15 23:34 | -36.44200 | 175.37251 | 3105 ft | 136 kts | 29° |
| 2026-04-15 23:34 | -36.43429 | 175.37936 | 3072 ft | 136 kts | 29° |
| 2026-04-15 23:36 | -36.38538 | 175.41351 | 3003 ft | 136 kts | 21° |
| 2026-04-15 23:36 | -36.37669 | 175.41847 | 2925 ft | 137 kts | 13° |
| 2026-04-15 23:36 | -36.36779 | 175.42217 | 2927 ft | 130 kts | 9° |
| 2026-04-15 23:36 | -36.35909 | 175.42546 | 2837 ft | 131 kts | 8° |
| 2026-04-15 23:37 | -36.35043 | 175.42839 | 2804 ft | 126 kts | 4° |
| 2026-04-15 23:37 | -36.34180 | 175.43022 | 2736 ft | 124 kts | 360° |
| 2026-04-15 23:37 | -36.33335 | 175.43207 | 2682 ft | 125 kts | 0° |
| 2026-04-15 23:37 | -36.32466 | 175.43295 | 2594 ft | 122 kts | 349° |
| 2026-04-15 23:38 | -36.31643 | 175.43193 | 2549 ft | 118 kts | 341° |
| 2026-04-15 23:38 | -36.30823 | 175.43065 | 2523 ft | 115 kts | 343° |
| 2026-04-15 23:38 | -36.30059 | 175.42999 | 2618 ft | 107 kts | 346° |
| 2026-04-15 23:38 | -36.29288 | 175.42941 | 2571 ft | 111 kts | 341° |
| 2026-04-15 23:39 | -36.28766 | 175.42795 | 2567 ft | 107 kts | 330° |
| 2026-04-15 23:39 | -36.28426 | 175.42650 | 2586 ft | 103 kts | 327° |
| 2026-04-15 23:40 | -36.27747 | 175.42363 | 2596 ft | 105 kts | 330° |
| 2026-04-15 23:40 | -36.27046 | 175.42067 | 2538 ft | 107 kts | 326° |
| 2026-04-15 23:40 | -36.26337 | 175.41751 | 2516 ft | 108 kts | 331° |
| 2026-04-15 23:40 | -36.25611 | 175.41493 | 2511 ft | 106 kts | 331° |
| 2026-04-15 23:41 | -36.24908 | 175.41231 | 2509 ft | 105 kts | 332° |
| 2026-04-15 23:41 | -36.24179 | 175.40970 | 2470 ft | 111 kts | 334° |
| 2026-04-15 23:41 | -36.23450 | 175.40686 | 2450 ft | 109 kts | 326° |
| 2026-04-15 23:41 | -36.22787 | 175.40280 | 2507 ft | 102 kts | 319° |
| 2026-04-15 23:42 | -36.22206 | 175.39792 | 2460 ft | 104 kts | 313° |
| 2026-04-15 23:42 | -36.21585 | 175.39276 | 2410 ft | 107 kts | 314° |
| 2026-04-15 23:42 | -36.20938 | 175.38840 | 2425 ft | 106 kts | 321° |
| 2026-04-15 23:42 | -36.20287 | 175.38429 | 2414 ft | 105 kts | 323° |
| 2026-04-15 23:43 | -36.19627 | 175.38084 | 2323 ft | 101 kts | 326° |
| 2026-04-15 23:43 | -36.18958 | 175.37784 | 2100 ft | 103 kts | 329° |
| 2026-04-15 23:43 | -36.18352 | 175.37482 | 1967 ft | 83 kts | 328° |
| 2026-04-15 23:43 | -36.17815 | 175.37247 | 1938 ft | 76 kts | 323° |
| 2026-04-15 23:44 | -36.17324 | 175.37009 | 1834 ft | 76 kts | 324° |
| 2026-04-15 23:44 | -36.16833 | 175.36783 | 1644 ft | 75 kts | 319° |
| 2026-04-15 23:44 | -36.16385 | 175.36472 | 1476 ft | 65 kts | 300° |
| 2026-04-15 23:44 | -36.16286 | 175.36018 | 1277 ft | 53 kts | 264° |
| 2026-04-15 23:45 | -36.16346 | 175.35600 | 1127 ft | 50 kts | 252° |
| 2026-04-15 23:45 | -36.16489 | 175.35226 | 1016 ft | 49 kts | 240° |
| 2026-04-15 23:45 | -36.16660 | 175.34857 | 1005 ft | 47 kts | 242° |
| 2026-04-15 23:45 | -36.16822 | 175.34468 | 875 ft | 51 kts | 243° |
| 2026-04-15 23:46 | -36.17008 | 175.34088 | 770 ft | 50 kts | 240° |
| 2026-04-15 23:46 | -36.17201 | 175.33730 | 658 ft | 51 kts | 235° |
| 2026-04-15 23:46 | -36.17377 | 175.33360 | 550 ft | 51 kts | 237° |
| 2026-04-15 23:46 | -36.17558 | 175.32983 | 406 ft | 48 kts | 240° |
| 2026-04-15 23:47 | -36.17690 | 175.32722 | 399 ft | 25 kts | 238° |
| 2026-04-15 23:47 | -36.17754 | 175.32596 | 399 ft | 10 kts | 237° |
| 2026-04-15 23:47 | -36.17780 | 175.32536 | 399 ft | 6 kts | 268° |
| 2026-04-15 23:47 | -36.17775 | 175.32492 | 399 ft | 4 kts | 281° |
| 2026-04-15 23:48 | -36.17777 | 175.32478 | 399 ft | 0 kts | 251° |